Terminal Aerodrome Forecast
Issued by NWS Hastings, NE

Home | Current Version | Previous Version | Text Only | Print | Product List | Glossary On
Versions: 1 2 3 4 5 6 7 8 9 10 11 12 13 14 15 16 17 18 19 20 21 22 23 24 25 26 27 28
000
FTUS45 KGID 270538
TAFEAR
TAF
KEAR 270538Z 2706/2806 01007KT P6SM OVC020
     FM271100 21010KT P6SM -RASN OVC050
     FM272000 21011G17KT P6SM -RASN BKN100
     FM272200 21011KT P6SM OVC100
     FM280400 20007KT P6SM BKN250
      AMD LTD TO CLD VIS AND WIND=

USA.gov is the U.S. government's official web portal to all federal, state and local government web resources and services.